Bolan, Iowa
Current Conditions -  °F | °C
As of 11:53 AM on Thursday 27 Nov 2014 (Local Time) from KMCW Reporting Station
Clear Clear  
Wind Chill: -14°   Ceiling: Unl
Heat Index:   Visibility: 10mi
Dew Point: -5°   Wind: 10mph
Humidity: 72%   Direction: 360°N
Pressure: 30.47"   Gusts: NA
Location:  43.3847°N, 93.1428°W
Report Text: KMCW 271753Z AUTO 36009KT 10SM CLR M17/M21 A3047 RMK AO2 SLP343 T11671206 11167 21228 58010
Loading
Personal Weather Stations






























Interactive Weather Map New forecast layout! Learn more

10-Day Weather Forecast

Advertisements
Track Severe Weather on mobile